Nortonville, Illinois
Current Conditions -  °F | °C
As of 1:55 AM on Friday 24 Oct 2014 (Local Time) from KIJX Reporting Station
Clear Clear  
Wind Chill: 52°   Ceiling: Unl
Heat Index: 52°   Visibility: 10mi
Dew Point: 47°   Wind: 3mph
Humidity: 81%   Direction: 190°S
Pressure: 30.07"   Gusts: NA
Location:  39.5633°N, 90.2043°W
Report Text: KIJX 240655Z AUTO 19003KT 10SM CLR 11/08 A3007 RMK AO2 T01130082
Loading
Personal Weather Stations






























Interactive Weather Map
Tropical Storm Tracking
New forecast layout! Learn more

10-Day Weather Forecast

Advertisements
Track Severe Weather on mobile